createdAt,value
2019-05-02T00:01:47.317Z,7.77
2019-05-02T00:04:34.740Z,10.67
2019-05-02T00:07:22.265Z,8.53
2019-05-02T00:10:12.187Z,6.73
2019-05-02T00:13:00.244Z,10.20
2019-05-02T00:15:50.096Z,10.30
2019-05-02T00:18:39.002Z,10.43
2019-05-02T00:21:26.843Z,9.40
2019-05-02T00:24:14.478Z,10.77
2019-05-02T00:27:03.175Z,7.00
2019-05-02T00:29:53.774Z,11.23
2019-05-02T00:32:40.172Z,8.60
2019-05-02T00:35:28.163Z,11.10
2019-05-02T00:38:15.748Z,8.87
2019-05-02T00:41:03.692Z,10.33
2019-05-02T00:43:51.480Z,8.43
2019-05-02T00:46:39.146Z,9.23
2019-05-02T00:49:30.743Z,11.37
2019-05-02T00:52:15.835Z,9.70
2019-05-02T00:55:03.734Z,10.73
2019-05-02T00:57:55.637Z,12.53
2019-05-02T01:00:55.278Z,8.60
2019-05-02T01:03:47.160Z,11.33
2019-05-02T01:06:33.205Z,10.27
2019-05-02T01:09:20.927Z,9.07
2019-05-02T01:12:09.965Z,15.93
2019-05-02T01:14:57.759Z,8.63
2019-05-02T01:17:45.852Z,10.20
2019-05-02T01:20:33.066Z,9.97
2019-05-02T01:23:22.994Z,11.63
2019-05-02T01:26:11.070Z,7.67
2019-05-02T01:29:13.585Z,9.87
2019-05-02T01:32:11.436Z,9.93
2019-05-02T01:35:17.177Z,9.33
2019-05-02T01:38:26.535Z,12.23
2019-05-02T01:41:12.874Z,10.33
2019-05-02T01:44:01.586Z,12.30
2019-05-02T01:46:48.957Z,19.20
2019-05-02T01:49:36.205Z,9.90
2019-05-02T01:52:24.845Z,10.93
2019-05-02T01:55:12.548Z,9.77
2019-05-02T01:57:59.738Z,9.60
2019-05-02T02:00:47.265Z,11.53
2019-05-02T02:03:34.750Z,14.77
2019-05-02T02:06:22.731Z,15.27
2019-05-02T02:09:11.087Z,11.93
2019-05-02T02:11:58.856Z,13.57
2019-05-02T02:14:48.048Z,8.07
2019-05-02T02:17:35.408Z,10.70
2019-05-02T02:20:25.384Z,12.00
2019-05-02T02:23:45.031Z,13.20
2019-05-02T02:26:33.471Z,10.60
2019-05-02T02:29:21.212Z,11.37
2019-05-02T02:32:09.093Z,11.90
2019-05-02T02:34:56.554Z,10.10
2019-05-02T02:37:52.004Z,10.43
2019-05-02T02:40:35.653Z,11.90
2019-05-02T02:43:34.249Z,9.13
2019-05-02T02:46:30.688Z,12.43
2019-05-02T02:49:21.792Z,8.83
2019-05-02T02:52:06.908Z,10.57
2019-05-02T02:54:54.174Z,10.53
2019-05-02T02:57:41.700Z,9.80
2019-05-02T03:00:29.171Z,10.57
2019-05-02T03:03:20.679Z,11.40
2019-05-02T03:06:07.987Z,9.63
2019-05-02T03:08:54.834Z,9.93
2019-05-02T03:12:04.506Z,9.83
2019-05-02T03:14:55.001Z,12.03
2019-05-02T03:17:42.337Z,9.40
2019-05-02T03:20:39.919Z,9.73
2019-05-02T03:23:21.682Z,10.33
2019-05-02T03:26:15.191Z,11.03
2019-05-02T03:29:00.276Z,11.13
2019-05-02T03:31:46.318Z,13.73
2019-05-02T03:34:46.602Z,11.37
2019-05-02T03:37:23.190Z,12.00
2019-05-02T03:40:10.417Z,13.03
2019-05-02T03:42:57.515Z,13.17
2019-05-02T03:45:45.132Z,12.43
2019-05-02T03:48:32.605Z,15.47
2019-05-02T03:51:24.718Z,15.40
2019-05-02T03:54:10.521Z,8.83
2019-05-02T03:56:58.230Z,11.83
2019-05-02T03:59:45.931Z,11.10
2019-05-02T04:02:33.705Z,12.57
2019-05-02T04:05:21.868Z,11.70
2019-05-02T04:08:19.733Z,10.73
2019-05-02T04:11:24.447Z,11.10
2019-05-02T04:14:17.514Z,11.60
2019-05-02T04:17:01.762Z,11.43
2019-05-02T04:19:50.605Z,11.53
2019-05-02T04:22:43.026Z,10.33
2019-05-02T04:25:33.809Z,13.10
2019-05-02T04:28:17.702Z,13.00
2019-05-02T04:31:05.331Z,11.53
2019-05-02T04:33:53.017Z,12.60
2019-05-02T04:36:40.688Z,9.27
2019-05-02T04:39:28.710Z,12.20
2019-05-02T04:42:19.494Z,10.43
2019-05-02T04:45:21.117Z,11.17
2019-05-02T04:48:01.016Z,11.63
2019-05-02T04:50:43.931Z,14.40
2019-05-02T04:53:36.670Z,13.43
2019-05-02T04:56:20.620Z,11.77
2019-05-02T04:59:17.862Z,10.07
2019-05-02T05:02:01.285Z,12.37
2019-05-02T05:04:49.372Z,11.40
2019-05-02T05:07:40.935Z,9.73
2019-05-02T05:10:27.604Z,11.77
2019-05-02T05:13:19.861Z,11.47
2019-05-02T05:16:08.674Z,9.67
2019-05-02T05:18:53.367Z,9.03
2019-05-02T05:21:40.828Z,9.83
2019-05-02T05:24:38.501Z,10.27
2019-05-02T05:27:27.484Z,7.00
2019-05-02T05:30:15.763Z,8.03
2019-05-02T05:33:04.048Z,12.10
2019-05-02T05:35:52.664Z,18.43
2019-05-02T05:38:40.712Z,16.93
2019-05-02T05:41:28.131Z,52.30
2019-05-02T05:44:17.898Z,18.20
2019-05-02T05:47:07.240Z,24.53
2019-05-02T05:49:57.699Z,16.80
2019-05-02T05:52:43.507Z,12.63
2019-05-02T05:55:31.786Z,10.20
2019-05-02T05:58:19.185Z,7.40
2019-05-02T06:01:10.181Z,9.67
2019-05-02T06:03:58.027Z,8.63
2019-05-02T06:06:45.187Z,7.80
2019-05-02T06:09:34.384Z,8.77
2019-05-02T06:12:26.090Z,7.80
2019-05-02T06:15:11.516Z,10.30
2019-05-02T06:18:00.040Z,16.67
2019-05-02T06:20:48.514Z,17.33
2019-05-02T06:23:39.189Z,16.50
2019-05-02T06:26:25.042Z,17.87
2019-05-02T06:29:13.019Z,17.60
2019-05-02T06:32:02.786Z,12.23
2019-05-02T06:34:50.117Z,13.53
2019-05-02T06:37:40.469Z,9.17
2019-05-02T06:40:27.037Z,10.27
2019-05-02T06:43:14.701Z,10.83
2019-05-02T06:46:15.549Z,10.27
2019-05-02T06:48:52.535Z,11.33
2019-05-02T06:51:40.990Z,10.90
2019-05-02T06:54:28.738Z,12.30
2019-05-02T06:57:19.153Z,14.57
2019-05-02T07:00:06.925Z,10.10
2019-05-02T07:02:54.555Z,11.20
2019-05-02T07:05:42.231Z,9.70
2019-05-02T07:08:30.008Z,12.73
2019-05-02T07:11:17.533Z,10.40
2019-05-02T07:14:13.060Z,10.90
2019-05-02T07:17:01.563Z,8.20
2019-05-02T07:19:52.382Z,11.27
2019-05-02T07:22:40.830Z,11.70
2019-05-02T07:25:28.079Z,11.97
2019-05-02T07:28:15.822Z,12.77
2019-05-02T07:31:06.486Z,9.20
2019-05-02T07:33:52.516Z,8.33
2019-05-02T07:36:40.228Z,8.13
2019-05-02T07:39:27.942Z,13.30
2019-05-02T07:42:15.713Z,9.97
2019-05-02T07:45:04.403Z,10.53
2019-05-02T07:47:53.177Z,10.27
2019-05-02T07:50:41.162Z,24.07
2019-05-02T07:53:29.234Z,9.37
2019-05-02T07:56:17.672Z,7.83
2019-05-02T07:59:06.071Z,8.80
2019-05-02T08:01:53.702Z,13.27
2019-05-02T08:04:43.667Z,12.10
2019-05-02T08:07:34.371Z,12.33
2019-05-02T08:10:22.337Z,9.60
2019-05-02T08:13:12.068Z,9.87
2019-05-02T08:15:59.958Z,11.70
2019-05-02T08:18:47.437Z,9.50
2019-05-02T08:21:35.055Z,9.17
2019-05-02T08:24:22.853Z,9.00
2019-05-02T08:27:38.535Z,10.03
2019-05-02T08:30:29.377Z,10.63
2019-05-02T08:33:16.878Z,10.97
2019-05-02T08:36:04.512Z,8.53
2019-05-02T08:38:53.661Z,9.83
2019-05-02T08:41:40.737Z,10.57
2019-05-02T08:44:28.206Z,10.80
2019-05-02T08:47:19.089Z,8.60
2019-05-02T08:50:07.648Z,11.30
2019-05-02T08:52:54.058Z,11.23
2019-05-02T08:55:45.365Z,11.73
2019-05-02T08:58:31.222Z,12.17
2019-05-02T09:01:18.629Z,9.57
2019-05-02T09:04:05.999Z,12.20
2019-05-02T09:06:58.754Z,12.33
2019-05-02T09:09:42.635Z,16.10
2019-05-02T09:12:31.988Z,11.13
2019-05-02T09:15:19.472Z,15.70
2019-05-02T09:18:07.449Z,12.53
2019-05-02T09:20:56.455Z,13.67
2019-05-02T09:23:44.455Z,11.20
2019-05-02T09:26:37.764Z,9.57
2019-05-02T09:29:22.309Z,8.50
2019-05-02T09:32:09.776Z,12.40
2019-05-02T09:35:02.130Z,9.17
2019-05-02T09:37:46.343Z,11.00
2019-05-02T09:40:33.480Z,12.20
2019-05-02T09:43:22.742Z,10.23
2019-05-02T09:46:12.818Z,12.00
2019-05-02T09:49:02.460Z,8.67
2019-05-02T09:51:50.262Z,15.40
2019-05-02T09:54:44.586Z,11.43
2019-05-02T09:57:26.504Z,10.70
2019-05-02T10:00:26.892Z,10.77
2019-05-02T10:03:17.164Z,10.07
2019-05-02T10:06:08.396Z,10.50
2019-05-02T10:08:53.805Z,10.47
2019-05-02T10:11:42.749Z,14.53
2019-05-02T10:14:32.871Z,10.90
2019-05-02T10:17:20.160Z,12.53
2019-05-02T10:20:07.495Z,12.87
2019-05-02T10:22:54.645Z,13.83
2019-05-02T10:25:46.788Z,14.57
2019-05-02T10:28:32.761Z,15.00
2019-05-02T10:31:21.861Z,11.57
2019-05-02T10:34:16.201Z,12.13
2019-05-02T10:37:00.225Z,14.07
2019-05-02T10:39:47.457Z,10.83
2019-05-02T10:42:34.829Z,11.00
2019-05-02T10:45:22.526Z,9.87
2019-05-02T10:48:24.351Z,11.13
2019-05-02T10:51:18.516Z,8.93
2019-05-02T10:54:06.562Z,10.57
2019-05-02T10:56:54.076Z,10.10
2019-05-02T10:59:42.067Z,10.97
2019-05-02T11:02:58.987Z,12.37
2019-05-02T11:05:48.724Z,10.80
2019-05-02T11:08:36.864Z,9.90
2019-05-02T11:11:25.345Z,10.83
2019-05-02T11:14:28.871Z,9.27
2019-05-02T11:17:36.516Z,11.37
2019-05-02T11:20:24.072Z,13.50
2019-05-02T11:23:12.706Z,8.73
2019-05-02T11:26:01.744Z,8.13
2019-05-02T11:28:52.145Z,7.80
2019-05-02T11:31:39.884Z,7.80
2019-05-02T11:34:27.392Z,13.57
2019-05-02T11:37:15.095Z,12.03
2019-05-02T11:40:06.004Z,8.30
2019-05-02T11:42:52.218Z,8.80
2019-05-02T11:45:40.120Z,12.77
2019-05-02T11:48:27.453Z,9.43
2019-05-02T11:51:16.536Z,9.20
2019-05-02T11:54:09.175Z,10.93
2019-05-02T11:56:53.801Z,11.23
2019-05-02T11:59:42.512Z,9.50
2019-05-02T12:02:58.083Z,9.30
2019-05-02T12:05:44.665Z,8.57
2019-05-02T12:08:31.995Z,8.17
2019-05-02T12:11:19.828Z,11.83
2019-05-02T12:14:07.253Z,9.90
2019-05-02T12:16:54.998Z,12.67
2019-05-02T12:19:42.686Z,11.60
2019-05-02T12:22:32.470Z,11.47
2019-05-02T12:25:19.697Z,13.60
2019-05-02T12:28:07.642Z,14.83
2019-05-02T12:30:55.064Z,14.87
2019-05-02T12:33:42.912Z,15.37
2019-05-02T12:36:30.368Z,14.37
2019-05-02T12:39:17.877Z,11.33
2019-05-02T12:42:05.963Z,14.40
2019-05-02T12:44:53.964Z,11.80
2019-05-02T12:47:42.809Z,13.20
2019-05-02T12:50:32.202Z,11.23
2019-05-02T12:53:21.941Z,11.90
2019-05-02T12:56:09.379Z,11.33
2019-05-02T12:58:56.476Z,12.60
2019-05-02T13:01:43.950Z,12.30
2019-05-02T13:04:32.246Z,9.73
2019-05-02T13:07:19.999Z,10.60
2019-05-02T13:10:11.690Z,11.23
2019-05-02T13:13:02.680Z,14.33
2019-05-02T13:15:51.903Z,11.60
2019-05-02T13:18:39.734Z,10.97
2019-05-02T13:21:41.482Z,10.00
2019-05-02T13:24:29.111Z,12.50
2019-05-02T13:27:17.387Z,11.00
2019-05-02T13:30:05.430Z,15.13
2019-05-02T13:32:57.911Z,13.43
2019-05-02T13:35:54.390Z,9.03
2019-05-02T13:38:42.392Z,12.40
2019-05-02T13:41:29.540Z,14.40
2019-05-02T13:44:21.840Z,10.97
2019-05-02T13:47:12.258Z,9.00
2019-05-02T13:50:01.651Z,12.23
2019-05-02T13:52:53.148Z,9.63
2019-05-02T13:55:43.828Z,12.27
2019-05-02T13:58:33.209Z,12.93
2019-05-02T14:01:22.414Z,10.27
2019-05-02T14:04:11.685Z,12.13
2019-05-02T14:06:59.085Z,15.27
2019-05-02T14:09:58.223Z,9.80
2019-05-02T14:12:49.410Z,9.67
2019-05-02T14:15:38.971Z,11.70
2019-05-02T14:18:28.922Z,10.80
2019-05-02T14:21:16.808Z,11.27
2019-05-02T14:24:04.326Z,7.60
2019-05-02T14:26:52.700Z,8.13
2019-05-02T14:29:42.366Z,9.97
2019-05-02T14:32:30.105Z,8.33
2019-05-02T14:35:35.832Z,6.70
2019-05-02T14:38:22.620Z,6.73
2019-05-02T14:41:15.065Z,6.87
2019-05-02T14:44:02.988Z,6.80
2019-05-02T14:46:52.294Z,6.50
2019-05-02T14:49:39.645Z,7.70
2019-05-02T14:52:27.319Z,7.43
2019-05-02T14:55:17.077Z,8.47
2019-05-02T14:58:05.875Z,6.80
2019-05-02T15:00:54.913Z,6.53
2019-05-02T15:03:42.429Z,7.03
2019-05-02T15:06:33.376Z,7.63
2019-05-02T15:09:22.659Z,5.47
2019-05-02T15:12:15.840Z,6.97
2019-05-02T15:14:58.769Z,5.60
2019-05-02T15:17:46.614Z,7.27
2019-05-02T15:20:39.197Z,5.87
2019-05-02T15:23:23.437Z,7.20
2019-05-02T15:26:13.697Z,6.57
2019-05-02T15:29:01.911Z,4.77
2019-05-02T15:32:03.296Z,5.43
2019-05-02T15:35:17.690Z,4.07
2019-05-02T15:38:06.677Z,5.20
2019-05-02T15:40:53.775Z,5.93
2019-05-02T15:43:44.264Z,5.67
2019-05-02T15:46:31.868Z,5.67
2019-05-02T15:49:19.416Z,6.70
2019-05-02T15:52:06.636Z,5.90
2019-05-02T15:54:59.774Z,8.10
2019-05-02T15:57:46.039Z,8.60
2019-05-02T16:00:36.772Z,7.67
2019-05-02T16:03:45.746Z,7.47
2019-05-02T16:06:33.668Z,9.17
2019-05-02T16:09:21.517Z,7.43
2019-05-02T16:12:09.048Z,8.23
2019-05-02T16:14:56.977Z,8.23
2019-05-02T16:17:44.619Z,6.93
2019-05-02T16:20:48.704Z,7.97
2019-05-02T16:23:35.780Z,7.07
2019-05-02T16:26:23.459Z,7.23
2019-05-02T16:29:14.879Z,7.83
2019-05-02T16:32:22.234Z,7.33
2019-05-02T16:35:15.313Z,7.57
2019-05-02T16:37:58.472Z,7.97
2019-05-02T16:40:46.296Z,7.03
2019-05-02T16:43:34.153Z,6.77
2019-05-02T16:46:21.741Z,8.07
2019-05-02T16:49:15.559Z,5.80
2019-05-02T16:52:04.892Z,8.53
2019-05-02T16:54:48.705Z,8.87
2019-05-02T16:57:36.115Z,6.23
2019-05-02T17:00:25.037Z,6.80
2019-05-02T17:03:12.725Z,6.77
2019-05-02T17:06:01.700Z,7.57
2019-05-02T17:08:58.759Z,6.93
2019-05-02T17:11:47.003Z,8.17
2019-05-02T17:14:34.275Z,6.43
2019-05-02T17:17:22.202Z,6.07
2019-05-02T17:20:13.032Z,7.97
2019-05-02T17:23:05.234Z,7.03
2019-05-02T17:25:48.877Z,5.60
2019-05-02T17:28:38.012Z,5.17
2019-05-02T17:31:25.227Z,6.33
2019-05-02T17:34:14.873Z,6.17
2019-05-02T17:37:04.867Z,4.43
2019-05-02T17:39:51.862Z,7.03
2019-05-02T17:42:39.241Z,7.07
2019-05-02T17:45:28.006Z,7.30
2019-05-02T17:48:17.841Z,7.50
2019-05-02T17:51:35.712Z,12.67
2019-05-02T17:54:22.723Z,8.67
2019-05-02T17:57:09.014Z,7.23
2019-05-02T17:59:56.486Z,6.33
2019-05-02T18:02:47.002Z,8.27
2019-05-02T18:05:35.663Z,13.17
2019-05-02T18:08:22.889Z,5.93
2019-05-02T18:11:10.281Z,7.93
2019-05-02T18:13:58.055Z,9.53
2019-05-02T18:16:47.099Z,8.33
2019-05-02T18:19:34.464Z,4.50
2019-05-02T18:22:24.021Z,4.27
2019-05-02T18:25:16.280Z,5.17
2019-05-02T18:28:02.383Z,2.77
2019-05-02T18:30:52.340Z,3.10
2019-05-02T18:33:51.723Z,2.63
2019-05-02T18:36:41.623Z,3.17
2019-05-02T18:39:28.689Z,3.60
2019-05-02T18:42:16.493Z,2.87
2019-05-02T18:45:07.241Z,3.23
2019-05-02T18:48:01.219Z,2.97
2019-05-02T18:50:47.621Z,2.93
2019-05-02T18:53:34.116Z,1.40
2019-05-02T18:56:22.555Z,2.87
2019-05-02T18:59:14.369Z,4.63
2019-05-02T19:02:02.057Z,1.60
2019-05-02T19:04:49.360Z,2.57
2019-05-02T19:07:37.069Z,2.97
2019-05-02T19:10:24.767Z,2.03
2019-05-02T19:13:12.838Z,3.20
2019-05-02T19:16:01.990Z,1.73
2019-05-02T19:18:54.460Z,1.50
2019-05-02T19:21:39.550Z,5.30
2019-05-02T19:24:27.490Z,1.73
2019-05-02T19:27:21.054Z,3.23
2019-05-02T19:30:11.104Z,2.43
2019-05-02T19:33:03.710Z,2.93
2019-05-02T19:35:50.092Z,3.80
2019-05-02T19:38:38.449Z,3.60
2019-05-02T19:41:26.594Z,2.67
2019-05-02T19:44:15.390Z,2.47
2019-05-02T19:47:08.458Z,2.10
2019-05-02T19:49:54.503Z,3.30
2019-05-02T19:52:42.952Z,2.60
2019-05-02T19:55:32.112Z,2.33
2019-05-02T19:58:20.279Z,3.37
2019-05-02T20:01:12.713Z,2.93
2019-05-02T20:04:02.417Z,3.67
2019-05-02T20:06:49.567Z,3.57
2019-05-02T20:09:38.245Z,2.43
2019-05-02T20:12:26.602Z,2.30
2019-05-02T20:15:21.638Z,2.17
2019-05-02T20:18:06.279Z,1.90
2019-05-02T20:21:11.721Z,3.40
2019-05-02T20:24:01.520Z,3.67
2019-05-02T20:26:52.377Z,2.13
2019-05-02T20:29:37.921Z,2.37
2019-05-02T20:32:25.697Z,2.60
2019-05-02T20:35:13.085Z,3.30
2019-05-02T20:38:01.630Z,2.77
2019-05-02T20:40:52.045Z,2.73
2019-05-02T20:43:42.825Z,2.80
2019-05-02T20:46:29.228Z,2.80
2019-05-02T20:49:17.231Z,2.30
2019-05-02T20:52:05.420Z,1.83
2019-05-02T20:54:53.686Z,1.70
2019-05-02T20:57:42.042Z,2.33
2019-05-02T21:00:32.263Z,1.83
2019-05-02T21:03:20.460Z,1.73
2019-05-02T21:06:41.394Z,3.50
2019-05-02T21:09:53.006Z,2.67
2019-05-02T21:12:42.920Z,6.63
2019-05-02T21:15:32.244Z,2.53
2019-05-02T21:18:19.607Z,3.93
2019-05-02T21:21:07.168Z,4.23
2019-05-02T21:23:57.718Z,2.57
2019-05-02T21:26:45.305Z,3.63
2019-05-02T21:29:33.104Z,2.60
2019-05-02T21:32:22.909Z,2.67
2019-05-02T21:35:11.903Z,2.93
2019-05-02T21:37:59.333Z,2.37
2019-05-02T21:40:47.230Z,4.03
2019-05-02T21:43:34.648Z,3.30
2019-05-02T21:46:22.481Z,3.17
2019-05-02T21:49:12.070Z,2.80
2019-05-02T21:52:14.192Z,5.73
2019-05-02T21:55:21.690Z,2.37
2019-05-02T21:58:09.453Z,5.80
2019-05-02T22:01:02.853Z,3.00
2019-05-02T22:03:49.966Z,2.33
2019-05-02T22:06:38.115Z,2.97
2019-05-02T22:09:26.702Z,2.43
2019-05-02T22:12:14.570Z,2.40
2019-05-02T22:15:02.399Z,1.77
2019-05-02T22:17:52.155Z,2.80
2019-05-02T22:20:39.533Z,4.00
2019-05-02T22:23:27.182Z,3.57
2019-05-02T22:26:14.337Z,2.37
2019-05-02T22:29:02.123Z,2.47
2019-05-02T22:31:49.627Z,3.83
2019-05-02T22:34:37.359Z,4.77
2019-05-02T22:37:26.162Z,3.57
2019-05-02T22:40:14.822Z,2.87
2019-05-02T22:43:04.544Z,2.93
2019-05-02T22:45:51.716Z,4.77
2019-05-02T22:48:39.874Z,2.43
2019-05-02T22:51:27.071Z,2.93
2019-05-02T22:54:26.791Z,2.93
2019-05-02T22:57:04.377Z,3.23
2019-05-02T22:59:52.359Z,2.90
2019-05-02T23:02:41.791Z,2.87
2019-05-02T23:05:28.945Z,2.87
2019-05-02T23:08:16.419Z,3.53
2019-05-02T23:11:04.420Z,2.80
2019-05-02T23:13:51.839Z,2.73
2019-05-02T23:16:42.382Z,2.60
2019-05-02T23:19:28.889Z,2.67
2019-05-02T23:22:16.668Z,3.00
2019-05-02T23:25:42.550Z,2.23
2019-05-02T23:28:31.870Z,2.50
2019-05-02T23:31:19.302Z,1.67
2019-05-02T23:34:06.722Z,2.37
2019-05-02T23:36:54.137Z,2.80
2019-05-02T23:39:41.959Z,2.40
2019-05-02T23:42:29.700Z,1.80
2019-05-02T23:45:17.518Z,4.57
2019-05-02T23:48:05.891Z,2.43
2019-05-02T23:50:53.668Z,2.37
2019-05-02T23:53:42.226Z,3.77
2019-05-02T23:56:29.738Z,2.67
2019-05-02T23:59:16.819Z,2.50
